KHTS/HTS METAR and TAF weather

Enter ICAO airport designator
Station Type Date Time Source
KHTS METAR 2021/09/28 03:51 UTC NOAA

KHTS 280351Z 22006KT 10SM CLR 21/16 A2998 RMK AO2 SLP144 T02060161


Station Type Date Time Source
KHTS Decoded METAR 2021/09/28 03:51 UTC NOAA

TRI-STATE AIRPORT, WV, United States (KHTS) 38-22N 082-33W 254M
Sep 27, 2021 - 11:51 PM EDT / 2021.09.28 0351 UTC
Wind: from the SW (220 degrees) at 7 MPH (6 KT):0
Visibility: 10 mile(s):0
Sky conditions: clear
Temperature: 69.1 F (20.6 C)
Dew Point: 61.0 F (16.1 C)
Relative Humidity: 75%
Pressure (altimeter): 29.98 in. Hg (1015 hPa)
ob: KHTS 280351Z 22006KT 10SM CLR 21/16 A2998 RMK AO2 SLP144 T02060161
cycle: 4

Station Type Date Time Source
KHTS TAF 2021/09/28 02:21 UTC NOAA

TAF
AMD KHTS 280218Z 2802/2824 21006KT P6SM FEW250
FM280600 21005KT P6SM BKN250
FM281400 24007KT P6SM FEW250

Example: see airport list